Time;durP1;ratioP1;P1;durP2;ratioP2;P2;SDS_P1;SDS_P2;PMS_P1;PMS_P2;Temp;Humidity;BMP_temperature;BMP_pressure;BME280_temperature;BME280_humidity;BME280_pressure;Samples;Min_cycle;Max_cycle;Signal;HPM_P1;HPM_P2
2022/02/04 00:06:08;;;;;;;4.20;2.53;;;;;;;-145.69;100.00;72745.78;5131165;28;20712;-79
2022/02/04 00:08:59;;;;;;;4.97;2.50;;;;;;;-145.69;100.00;72735.81;5130850;28;20192;-79
2022/02/04 00:22:57;;;;;;;8.07;3.80;;;;;;;-145.69;100.00;72723.88;5130091;28;20924;-78
2022/02/04 00:25:36;;;;;;;9.00;3.67;;;;;;;-145.69;100.00;72731.84;5130822;28;20196;-78
2022/02/04 00:28:08;;;;;;;11.50;4.40;;;;;;;-145.69;100.00;72735.81;5130614;28;20686;-79
2022/02/04 00:30:39;;;;;;;6.93;3.53;;;;;;;-145.69;100.00;72745.78;5130525;28;20220;-78
2022/02/04 00:33:10;;;;;;;8.77;3.40;;;;;;;-145.69;100.00;72751.75;5130651;28;20242;-78
2022/02/04 00:35:49;;;;;;;7.90;3.10;;;;;;;-145.69;100.00;72767.69;5124696;28;20619;-78
2022/02/04 00:38:23;;;;;;;9.53;4.23;;;;;;;-145.69;100.00;72733.84;5109849;28;20201;-78
2022/02/04 00:40:58;;;;;;;7.57;4.03;;;;;;;-145.69;100.00;72743.78;5110056;28;20193;-78
2022/02/04 00:43:24;;;;;;;9.53;5.43;;;;;;;-145.69;100.00;72680.09;5109774;28;20616;-78
2022/02/04 00:45:57;;;;;;;8.03;4.40;;;;;;;-145.69;100.00;72703.97;5127128;28;20193;-79
2022/02/04 00:48:34;;;;;;;10.07;5.00;;;;;;;-145.69;100.00;72725.88;5119724;28;20190;-79
2022/02/04 00:51:06;;;;;;;8.53;4.67;;;;;;;-145.69;100.00;72721.88;5109387;28;20699;-78
2022/02/04 00:53:39;;;;;;;9.33;4.37;;;;;;;-145.69;100.00;72727.88;5109745;28;20209;-79
2022/02/04 00:56:18;;;;;;;8.33;4.40;;;;;;;-145.69;100.00;72767.69;5109758;28;20211;-79
2022/02/04 01:26:16;;;;;;;8.37;3.60;;;;;;;-145.69;100.00;72847.28;5095176;28;20711;-77
2022/02/04 01:28:49;;;;;;;12.93;4.53;;;;;;;-145.69;100.00;72855.25;5095296;28;20201;-77
2022/02/04 01:31:18;;;;;;;11.57;5.27;;;;;;;-145.69;100.00;72825.41;5095438;28;20236;-77
2022/02/04 01:33:45;;;;;;;11.90;6.23;;;;;;;-145.69;100.00;72763.69;5094957;28;20198;-77
2022/02/04 01:36:13;;;;;;;12.90;5.60;;;;;;;-145.69;100.00;72787.56;5095407;28;20206;-77
2022/02/04 01:38:40;;;;;;;22.87;10.37;;;;;;;-145.69;100.00;72701.97;5095238;28;20213;-77
2022/02/04 01:41:08;;;;;;;34.73;13.43;;;;;;;-145.69;100.00;72656.22;5095342;28;20654;-77
2022/02/04 01:43:35;;;;;;;33.13;14.07;;;;;;;-145.69;100.00;72624.34;5094756;28;20194;-77
2022/02/04 01:46:05;;;;;;;27.40;12.77;;;;;;;-145.69;100.00;72592.50;5094968;28;20199;-78
2022/02/04 01:48:33;;;;;;;24.73;11.70;;;;;;;-145.69;100.00;72626.34;5106621;28;20545;-78
2022/02/04 01:51:00;;;;;;;22.43;11.20;;;;;;;-145.69;100.00;72632.31;5115159;28;20237;-78
2022/02/04 01:53:28;;;;;;;27.67;12.23;;;;;;;-145.69;100.00;72630.31;5115582;28;20201;-77
2022/02/04 01:55:56;;;;;;;28.57;12.67;;;;;;;-145.69;100.00;72594.50;5115471;28;20208;-78
2022/02/04 01:58:23;;;;;;;26.80;12.37;;;;;;;-145.69;100.00;72598.47;5115479;28;20201;-78
2022/02/04 02:00:49;;;;;;;29.57;13.17;;;;;;;-145.69;100.00;72580.56;5115311;28;20201;-78
2022/02/04 02:03:19;;;;;;;24.17;11.70;;;;;;;-145.69;100.00;72586.53;5115230;28;20198;-77
2022/02/04 02:05:46;;;;;;;27.73;11.30;;;;;;;-145.69;100.00;72598.47;5115084;28;20197;-77
2022/02/04 02:08:15;;;;;;;23.47;10.13;;;;;;;-145.69;100.00;72610.44;5115001;28;20197;-77
2022/02/04 02:10:46;;;;;;;27.57;12.53;;;;;;;-145.69;100.00;72602.47;5114962;28;20588;-78
2022/02/04 02:13:23;;;;;;;25.03;11.10;;;;;;;-145.69;100.00;72588.53;5114050;28;20201;-78
2022/02/04 02:15:59;;;;;;;26.50;12.47;;;;;;;-145.69;100.00;72580.56;5114934;28;20688;-77
2022/02/04 02:35:27;;;;;;;18.67;10.27;;;;;;;-145.69;100.00;72496.97;5114494;28;20243;-77
2022/02/04 02:43:54;;;;;;;22.50;10.20;;;;;;;-145.69;100.00;72504.94;5114630;28;20200;-78
2022/02/04 02:46:41;;;;;;;17.03;9.10;;;;;;;-145.69;100.00;72485.03;5114507;28;20250;-78
2022/02/04 02:49:26;;;;;;;16.47;9.27;;;;;;;-145.69;100.00;72479.06;5097552;28;20204;-78
2022/02/04 02:52:13;;;;;;;20.27;9.27;;;;;;;-145.69;100.00;72477.06;5094083;28;20230;-78
2022/02/04 03:00:23;;;;;;;18.00;9.07;;;;;;;-145.69;100.00;72465.13;5090925;28;20240;-78
2022/02/04 03:02:54;;;;;;;15.03;8.40;;;;;;;-145.69;100.00;72467.13;5096053;28;20198;-78
2022/02/04 03:05:21;;;;;;;16.60;8.33;;;;;;;-145.69;100.00;72457.16;5093718;28;20310;-78
2022/02/04 03:07:47;;;;;;;18.60;9.33;;;;;;;-145.69;100.00;72457.16;5093714;28;20197;-78
2022/02/04 03:10:16;;;;;;;18.70;9.03;;;;;;;-145.69;100.00;72453.19;5093332;28;20218;-79
2022/02/04 03:12:44;;;;;;;15.67;8.50;;;;;;;-145.69;100.00;72453.19;5093629;28;20201;-79
2022/02/04 03:15:11;;;;;;;17.97;9.50;;;;;;;-145.69;100.00;72453.19;5093572;28;20198;-78
2022/02/04 03:17:38;;;;;;;20.37;10.17;;;;;;;-145.69;100.00;72449.19;5093488;28;20199;-78
2022/02/04 03:20:09;;;;;;;18.83;11.32;;;;;;;-145.69;100.00;72449.19;5093004;28;20493;-78
2022/02/04 03:22:36;;;;;;;20.50;10.53;;;;;;;-145.69;100.00;72451.19;5093253;28;20720;-78
2022/02/04 03:25:06;;;;;;;18.70;10.33;;;;;;;-145.69;100.00;72467.13;5093179;28;20202;-79
2022/02/04 03:27:39;;;;;;;19.80;10.87;;;;;;;-145.69;100.00;72465.13;5093458;28;20202;-79
2022/02/04 03:30:12;;;;;;;19.67;10.67;;;;;;;-145.69;100.00;72473.09;5093223;28;20205;-78
2022/02/04 03:32:46;;;;;;;20.33;10.93;;;;;;;-145.69;100.00;72469.09;5093293;28;20237;-78
2022/02/04 03:35:18;;;;;;;22.63;11.60;;;;;;;-145.69;100.00;72473.09;5093103;28;20208;-78
2022/02/04 03:37:45;;;;;;;22.03;11.77;;;;;;;-145.69;100.00;72475.06;5093347;28;20202;-78
2022/02/04 03:40:12;;;;;;;20.23;11.23;;;;;;;-145.69;100.00;72479.06;5093031;28;20661;-79
2022/02/04 03:42:43;;;;;;;22.70;11.53;;;;;;;-145.69;100.00;72475.06;5093177;28;20206;-79
2022/02/04 03:45:10;;;;;;;24.77;11.50;;;;;;;-145.69;100.00;72485.03;5093054;28;20221;-79
2022/02/04 03:47:36;;;;;;;22.67;11.33;;;;;;;-145.69;100.00;72483.03;5096713;28;20197;-79
2022/02/04 03:50:04;;;;;;;20.77;11.13;;;;;;;-145.69;100.00;72500.94;5113125;28;20237;-78
2022/02/04 03:52:30;;;;;;;24.03;12.00;;;;;;;-145.69;100.00;72489.00;5113508;28;20200;-78
2022/02/04 03:54:57;;;;;;;19.80;11.37;;;;;;;-145.69;100.00;72496.97;5113359;28;20217;-78
2022/02/04 03:57:23;;;;;;;19.90;11.03;;;;;;;-145.69;100.00;72489.00;5113449;28;20224;-78
2022/02/04 03:59:51;;;;;;;19.33;10.17;;;;;;;-145.69;100.00;72477.06;5112943;28;20204;-78
2022/02/04 04:02:18;;;;;;;19.47;10.33;;;;;;;-145.69;100.00;72489.00;5112898;28;20292;-79
2022/02/04 04:04:44;;;;;;;18.77;10.20;;;;;;;-145.69;100.00;72491.00;5113421;28;20204;-79
2022/02/04 04:07:11;;;;;;;19.50;10.43;;;;;;;-145.69;100.00;72494.97;5113425;28;20255;-79
2022/02/04 04:09:45;;;;;;;18.80;10.57;;;;;;;-145.69;100.00;72496.97;5113295;28;20243;-79
2022/02/04 04:12:12;;;;;;;17.17;9.20;;;;;;;-145.69;100.00;72510.91;5113426;28;20240;-79
2022/02/04 04:14:41;;;;;;;19.80;10.20;;;;;;;-145.69;100.00;72504.94;5113199;28;20203;-79
2022/02/04 04:17:09;;;;;;;19.33;9.93;;;;;;;-145.69;100.00;72500.94;5113155;28;20561;-79
2022/02/04 04:19:35;;;;;;;16.83;9.47;;;;;;;-145.69;100.00;72493.00;5113070;28;20201;-79
2022/02/04 04:22:02;;;;;;;19.83;9.57;;;;;;;-145.69;100.00;72502.94;5113193;28;20201;-79
2022/02/04 04:24:28;;;;;;;16.83;8.90;;;;;;;-145.69;100.00;72504.94;5113146;28;20205;-78
2022/02/04 04:26:55;;;;;;;19.93;8.90;;;;;;;-145.69;100.00;72500.94;5113000;28;20247;-78
2022/02/04 04:29:21;;;;;;;16.83;9.13;;;;;;;-145.69;100.00;72500.94;5113017;28;20201;-78
2022/02/04 04:31:48;;;;;;;19.67;9.40;;;;;;;-145.69;100.00;72496.97;5112770;28;20580;-79
2022/02/04 04:34:15;;;;;;;13.03;7.73;;;;;;;-145.69;100.00;72487.00;5112885;28;20652;-79
2022/02/04 04:36:42;;;;;;;14.97;9.17;;;;;;;-145.69;100.00;72493.00;5114106;28;20201;-78
2022/02/04 04:39:15;;;;;;;16.60;8.93;;;;;;;-145.69;100.00;72493.00;5116862;28;20206;-79
2022/02/04 04:41:53;;;;;;;16.90;9.23;;;;;;;-145.69;100.00;72504.94;5116849;28;20201;-78
2022/02/04 04:45:04;;;;;;;16.97;9.37;;;;;;;-145.69;100.00;72502.94;5116809;28;20197;-79
2022/02/04 05:26:17;;;;;;;23.10;12.37;;;;;;;-145.69;100.00;72544.75;5095649;28;20212;-79
2022/02/04 05:28:56;;;;;;;24.07;11.07;;;;;;;-145.69;100.00;72530.81;5095627;28;20298;-78
2022/02/04 05:31:22;;;;;;;21.10;11.10;;;;;;;-145.69;100.00;72524.84;5095613;28;20313;-78
2022/02/04 05:33:49;;;;;;;20.73;11.20;;;;;;;-145.69;100.00;72512.91;5095482;28;20205;-79
2022/02/04 05:36:16;;;;;;;19.00;10.17;;;;;;;-145.69;100.00;72506.91;5095681;28;20202;-79
2022/02/04 05:38:44;;;;;;;19.97;10.43;;;;;;;-145.69;100.00;72502.94;5095556;28;20202;-78
2022/02/04 05:41:17;;;;;;;21.40;10.00;;;;;;;-145.69;100.00;72498.97;5095071;28;20594;-79
2022/02/04 05:43:44;;;;;;;21.00;9.93;;;;;;;-145.69;100.00;72500.94;5095461;28;20206;-78
2022/02/04 05:46:14;;;;;;;20.27;10.50;;;;;;;-145.69;100.00;72504.94;5095182;28;20194;-78
2022/02/04 05:48:45;;;;;;;19.73;10.50;;;;;;;-145.69;100.00;72512.91;5107635;28;20239;-78
2022/02/04 05:54:01;;;;;;;17.43;9.93;;;;;;;-145.69;100.00;72514.88;5114338;28;20201;-78
2022/02/04 05:56:35;;;;;;;15.93;9.40;;;;;;;-145.69;100.00;72528.81;5115299;28;20197;-79
2022/02/04 05:59:09;;;;;;;21.13;10.07;;;;;;;-145.69;100.00;72528.81;5115252;28;20200;-79
2022/02/04 06:01:44;;;;;;;18.40;10.17;;;;;;;-145.69;100.00;72514.88;5115435;28;20216;-79
2022/02/04 06:04:25;;;;;;;18.63;10.10;;;;;;;-145.69;100.00;72512.91;5115218;28;20671;-79
2022/02/04 06:07:06;;;;;;;18.53;9.63;;;;;;;-145.69;100.00;72516.88;5115210;28;20674;-79
2022/02/04 06:15:11;;;;;;;21.27;10.57;;;;;;;-145.69;100.00;72532.78;5073389;28;20640;-79
2022/02/04 06:23:05;;;;;;;24.13;10.57;;;;;;;-145.69;100.00;72540.75;5103451;28;20341;-78
2022/02/04 06:25:34;;;;;;;22.63;10.07;;;;;;;-145.69;100.00;72536.78;5114773;28;20277;-78
2022/02/04 06:28:00;;;;;;;16.87;9.17;;;;;;;-145.69;100.00;72530.81;5114717;28;20215;-78
2022/02/04 06:30:27;;;;;;;17.13;9.40;;;;;;;-145.69;100.00;72524.84;5114215;28;20204;-78
2022/02/04 06:32:53;;;;;;;16.77;8.47;;;;;;;-145.69;100.00;72508.91;5114739;28;20274;-78
2022/02/04 06:35:20;;;;;;;18.90;9.33;;;;;;;-145.69;100.00;72520.84;5114628;28;20205;-79
2022/02/04 06:37:46;;;;;;;16.90;8.97;;;;;;;-145.69;100.00;72524.84;5114624;28;20250;-78
2022/02/04 06:40:13;;;;;;;19.57;8.77;;;;;;;-145.69;100.00;72526.81;5114568;28;20197;-79
2022/02/04 06:42:41;;;;;;;17.90;9.70;;;;;;;-145.69;100.00;72524.84;5114341;28;20558;-78
2022/02/04 06:45:08;;;;;;;13.43;8.03;;;;;;;-145.69;100.00;72526.81;5114624;28;20197;-79
2022/02/04 06:47:35;;;;;;;20.10;9.23;;;;;;;-145.69;100.00;72530.81;5111959;28;20251;-78
2022/02/04 06:50:02;;;;;;;14.00;7.67;;;;;;;-145.69;100.00;72524.84;5093715;28;20749;-78
2022/02/04 06:52:28;;;;;;;17.33;9.07;;;;;;;-145.69;100.00;72528.81;5093961;28;20226;-78
2022/02/04 06:54:55;;;;;;;16.37;8.57;;;;;;;-145.69;100.00;72532.78;5093861;28;20195;-79
2022/02/04 06:57:21;;;;;;;14.13;7.90;;;;;;;-145.69;100.00;72532.78;5093671;28;20202;-78
2022/02/04 06:59:51;;;;;;;14.83;7.63;;;;;;;-145.69;100.00;72536.78;5093461;28;20198;-78
2022/02/04 07:02:20;;;;;;;14.53;7.70;;;;;;;-145.69;100.00;72532.78;5093875;28;20267;-78
2022/02/04 07:04:46;;;;;;;13.83;7.77;;;;;;;-145.69;100.00;72530.81;5093434;28;20251;-78
2022/02/04 07:07:13;;;;;;;16.00;7.70;;;;;;;-145.69;100.00;72526.81;5093623;28;20223;-78
2022/02/04 07:09:47;;;;;;;38.37;17.03;;;;;;;-145.69;100.00;72526.81;5093614;28;20387;-78
2022/02/04 07:12:30;;;;;;;137.10;54.70;;;;;;;-145.69;100.00;72528.81;5093512;28;20225;-78
2022/02/04 07:15:25;;;;;;;162.73;59.20;;;;;;;-145.69;100.00;72530.81;5093729;28;20201;-78
2022/02/04 07:18:01;;;;;;;67.13;27.40;;;;;;;-145.69;100.00;72532.78;5093517;28;20220;-78
2022/02/04 07:20:27;;;;;;;50.33;22.03;;;;;;;-145.69;100.00;72522.84;5093343;28;20213;-78
2022/02/04 07:22:54;;;;;;;28.70;13.37;;;;;;;-145.69;100.00;72512.91;5093500;28;20201;-78
2022/02/04 07:25:20;;;;;;;24.10;11.43;;;;;;;-145.69;100.00;72516.88;5093465;28;20206;-78
2022/02/04 07:27:46;;;;;;;14.37;8.03;;;;;;;-145.69;100.00;72506.91;5093276;28;20641;-79
2022/02/04 07:30:15;;;;;;;16.77;7.57;;;;;;;-145.69;100.00;72510.91;5093301;28;20202;-78
2022/02/04 07:32:50;;;;;;;11.63;6.50;;;;;;;-145.69;100.00;72516.88;5092180;28;20711;-78
2022/02/04 07:35:36;;;;;;;14.33;7.70;;;;;;;-145.69;100.00;72522.84;5093442;28;20208;-77
2022/02/04 07:40:54;;;;;;;13.90;6.27;;;;;;;-145.69;100.00;72514.88;5093159;28;20324;-78
2022/02/04 07:43:27;;;;;;;9.10;5.13;;;;;;;-145.69;100.00;72504.94;5092993;28;20300;-78
2022/02/04 07:45:55;;;;;;;10.10;5.03;;;;;;;-145.69;100.00;72489.00;5093098;28;20202;-79
2022/02/04 07:48:21;;;;;;;8.73;4.30;;;;;;;-145.69;100.00;72485.03;5103406;28;20189;-78
2022/02/04 07:50:48;;;;;;;9.17;4.10;;;;;;;-145.69;100.00;72481.03;5113167;28;20240;-79
2022/02/04 07:53:16;;;;;;;6.43;3.70;;;;;;;-145.69;100.00;72465.13;5113440;28;20312;-78
2022/02/04 07:55:44;;;;;;;6.70;3.27;;;;;;;-145.69;100.00;72465.13;5113405;28;20198;-78
2022/02/04 07:58:12;;;;;;;7.30;4.03;;;;;;;-145.69;100.00;72453.19;5113589;28;20564;-78
2022/02/04 08:00:39;;;;;;;8.13;4.00;;;;;;;-145.69;100.00;72447.22;5113464;28;20224;-79
2022/02/04 08:03:23;;;;;;;8.40;3.90;;;;;;;-145.69;100.00;72425.31;5113277;28;20716;-78
2022/02/04 08:05:53;;;;;;;6.60;4.20;;;;;;;-145.69;100.00;72427.31;5113352;28;20289;-79
2022/02/04 08:08:24;;;;;;;10.60;4.50;;;;;;;-145.69;100.00;72423.31;5113292;28;20622;-78
2022/02/04 08:11:07;;;;;;;7.23;4.50;;;;;;;-145.69;100.00;72413.38;5113326;28;20692;-78
2022/02/04 08:14:02;;;;;;;8.40;4.70;;;;;;;-145.69;100.00;72401.44;5117400;28;20766;-78
2022/02/04 08:22:21;;;;;;;7.27;4.03;;;;;;;-145.69;100.00;72389.50;5072320;28;20244;-78
2022/02/04 08:25:02;;;;;;;4.80;2.90;;;;;;;-145.69;100.00;72389.50;5117106;28;20201;-78
2022/02/04 08:27:59;;;;;;;8.47;4.23;;;;;;;-145.69;100.00;72377.53;5117272;28;20208;-78
2022/02/04 08:36:31;;;;;;;6.13;3.20;;;;;;;-145.69;100.00;72349.69;5117248;28;20201;-77
2022/02/04 08:39:20;;;;;;;8.80;3.47;;;;;;;-145.69;100.00;72321.81;5117015;28;20224;-76
2022/02/04 08:50:43;;;;;;;5.40;3.03;;;;;;;-145.69;100.00;72272.06;5033782;28;20250;-77
2022/02/04 08:56:02;;;;;;;4.63;2.63;;;;;;;-145.69;100.00;72252.16;5067659;28;20271;-78
2022/02/04 08:58:33;;;;;;;4.27;2.27;;;;;;;-145.69;100.00;72264.09;5096200;28;20679;-79
2022/02/04 09:01:05;;;;;;;4.00;2.20;;;;;;;-145.69;100.00;72246.19;5096219;28;20676;-79
2022/02/04 09:03:41;;;;;;;4.73;2.67;;;;;;;-145.69;100.00;72242.22;5096307;28;20206;-79
2022/02/04 09:06:11;;;;;;;3.33;2.37;;;;;;;-145.69;100.00;72252.16;5096329;28;20201;-79
2022/02/04 09:08:42;;;;;;;5.80;2.30;;;;;;;-145.69;100.00;72282.00;5095911;28;20598;-79
2022/02/04 09:11:14;;;;;;;4.23;2.00;;;;;;;-145.69;100.00;72268.06;5096072;28;20201;-79
2022/02/04 09:19:13;;;;;;;4.33;2.20;;;;;;;-145.69;100.00;72248.19;5109274;28;20326;-78
2022/02/04 09:24:25;;;;;;;4.37;2.00;;;;;;;-145.69;100.00;72236.22;5116186;28;20200;-77
2022/02/04 09:26:52;;;;;;;2.60;1.77;;;;;;;-145.69;100.00;72232.25;5115829;28;20201;-78
2022/02/04 09:29:19;;;;;;;2.40;1.77;;;;;;;-145.69;100.00;72228.28;5115472;28;20224;-78
2022/02/04 09:31:55;;;;;;;4.30;2.40;;;;;;;-145.69;100.00;72202.41;5115661;28;20545;-78
2022/02/04 09:34:21;;;;;;;2.97;1.80;;;;;;;-145.69;100.00;72186.47;5095079;28;20194;-78
2022/02/04 09:36:48;;;;;;;2.33;1.50;;;;;;;-145.69;97.54;72174.53;5095520;28;20284;-78
2022/02/04 09:39:20;;;;;;;2.23;1.53;;;;;;;-145.69;97.53;72158.63;5095395;28;20205;-77
2022/02/04 09:41:48;;;;;;;2.33;1.60;;;;;;;-145.69;96.32;72118.81;5095116;28;20186;-77
2022/02/04 09:44:16;;;;;;;1.40;1.00;;;;;;;-145.69;95.19;72126.78;5095187;28;20198;-76
2022/02/04 09:46:44;;;;;;;1.53;1.00;;;;;;;-145.69;94.67;72130.75;5095073;28;20657;-77
2022/02/04 09:49:20;;;;;;;2.00;1.10;;;;;;;-145.69;94.73;72118.81;5094888;28;20209;-77
2022/02/04 10:09:28;;;;;;;3.40;1.40;;;;;;;-145.69;90.38;72088.97;5094701;28;20201;-76
2022/02/04 10:12:27;;;;;;;4.07;1.67;;;;;;;-145.69;91.15;72069.06;5094289;28;20209;-77
2022/02/04 10:15:18;;;;;;;2.63;1.60;;;;;;;-145.69;93.26;72102.88;5100168;28;20198;-76
2022/02/04 10:18:04;;;;;;;1.70;1.20;;;;;;;-145.69;92.01;72112.84;5114865;28;20720;-77
2022/02/04 10:20:37;;;;;;;2.07;1.57;;;;;;;-145.69;93.37;72132.75;5114967;28;20197;-77
2022/02/04 10:23:04;;;;;;;1.97;0.97;;;;;;;-145.69;93.24;72140.69;5114895;28;20288;-77
2022/02/04 10:25:40;;;;;;;2.77;1.37;;;;;;;-145.69;93.67;72154.63;5114647;28;20201;-77
2022/02/04 10:28:21;;;;;;;2.60;1.20;;;;;;;-145.69;95.25;72170.56;5114777;28;20197;-76
2022/02/04 10:31:05;;;;;;;1.00;0.80;;;;;;;-145.69;93.15;72170.56;5114545;28;20711;-77
2022/02/04 10:33:48;;;;;;;3.27;1.73;;;;;;;-145.69;95.65;72170.56;5113953;28;20225;-77
2022/02/04 10:36:36;;;;;;;1.47;0.97;;;;;;;-145.69;94.71;72140.69;5113769;28;20666;-77
2022/02/04 10:39:35;;;;;;;1.87;1.00;;;;;;;-145.69;92.64;72114.81;5114618;28;20206;-77
2022/02/04 10:42:17;;;;;;;1.67;1.00;;;;;;;-145.69;92.50;72142.69;5114437;27;20201;-77
2022/02/04 10:47:54;;;;;;;2.07;0.97;;;;;;;-145.69;91.10;72156.63;5093388;28;20745;-76
2022/02/04 10:59:32;;;;;;;2.10;1.30;;;;;;;-145.69;97.22;72184.50;5092604;28;20280;-77
2022/02/04 11:02:22;;;;;;;3.03;1.50;;;;;;;-145.69;97.06;72182.50;5114188;28;20201;-76
2022/02/04 11:05:04;;;;;;;19.23;7.53;;;;;;;-145.69;96.09;72166.56;5113930;28;20204;-76
2022/02/04 11:08:15;;;;;;;75.60;37.40;;;;;;;-145.69;96.22;72154.63;5113851;28;20695;-76
2022/02/04 11:11:01;;;;;;;5.00;3.00;;;;;;;-145.69;97.54;72154.63;5113538;28;20602;-77
2022/02/04 11:33:47;;;;;;;2.10;1.50;;;;;;;-145.69;97.55;72182.50;5094285;28;20649;-77
2022/02/04 11:49:08;;;;;;;2.37;1.30;;;;;;;-145.69;98.07;72154.63;5113498;28;20605;-77
2022/02/04 11:51:44;;;;;;;1.57;1.37;;;;;;;-145.69;95.77;72160.59;5095002;28;20237;-79
2022/02/04 11:54:36;;;;;;;5.23;1.93;;;;;;;-145.69;97.54;72132.75;5095602;28;20232;-79
2022/02/04 11:57:20;;;;;;;3.90;1.40;;;;;;;-145.69;94.76;72126.78;5099754;28;20190;-77
2022/02/04 11:59:53;;;;;;;3.70;2.47;;;;;;;-145.69;96.43;72116.81;5095376;28;20233;-77
2022/02/04 12:02:39;;;;;;;3.00;1.97;;;;;;;-145.69;99.78;72100.91;5113348;28;20193;-78
2022/02/04 12:05:31;;;;;;;3.30;1.77;;;;;;;-145.69;96.47;72086.97;5113133;28;20629;-76
2022/02/04 12:08:25;;;;;;;5.20;2.63;;;;;;;-145.69;94.28;72033.22;5112912;28;20203;-76
2022/02/04 12:10:56;;;;;;;3.17;2.03;;;;;;;-145.69;94.21;72049.16;5113246;28;20201;-77
2022/02/04 12:13:24;;;;;;;4.17;2.23;;;;;;;-145.69;95.67;72094.94;5113035;28;20270;-76
2022/02/04 12:15:56;;;;;;;4.97;2.47;;;;;;;-145.69;93.70;72086.97;5113025;28;20613;-76
2022/02/04 12:19:04;;;;;;;2.97;1.80;;;;;;;-145.69;97.03;72071.03;5112876;28;20210;-76
2022/02/04 12:21:43;;;;;;;2.80;1.90;;;;;;;-145.69;96.40;72079.00;5113050;28;20193;-76
2022/02/04 12:24:34;;;;;;;4.47;2.00;;;;;;;-145.69;93.83;72082.97;5113113;28;20205;-76
2022/02/04 12:27:47;;;;;;;3.20;2.07;;;;;;;-145.69;96.57;72098.91;5112114;28;20198;-76
2022/02/04 12:30:45;;;;;;;3.73;2.03;;;;;;;-145.69;96.24;72081.00;5092536;28;20649;-76
2022/02/04 12:33:15;;;;;;;4.27;2.33;;;;;;;-145.69;95.34;72102.88;5092640;28;20230;-78
2022/02/04 12:35:46;;;;;;;4.07;1.90;;;;;;;-145.69;96.40;72094.94;5092667;28;20206;-77
2022/02/04 12:38:19;;;;;;;2.60;1.90;;;;;;;-145.69;96.70;72086.97;5092428;28;20216;-77
2022/02/04 12:40:57;;;;;;;4.53;2.30;;;;;;;-145.69;97.67;72079.00;5092609;28;20202;-77
2022/02/04 12:43:27;;;;;;;2.60;1.70;;;;;;;-145.69;95.59;72061.09;5092400;28;20210;-77
2022/02/04 12:45:56;;;;;;;2.60;1.97;;;;;;;-145.69;97.34;72061.09;5092683;28;20289;-76
2022/02/04 12:48:26;;;;;;;3.73;1.80;;;;;;;-145.69;95.44;72063.09;5092350;28;20205;-77
2022/02/04 12:50:54;;;;;;;2.97;1.80;;;;;;;-145.69;97.39;72090.94;5092188;28;20238;-77
2022/02/04 12:53:26;;;;;;;2.90;1.80;;;;;;;-145.69;95.43;72096.91;5092336;28;20249;-76
2022/02/04 12:56:16;;;;;;;4.20;1.80;;;;;;;-145.69;96.26;72110.84;5095718;28;20251;-76
2022/02/04 12:59:08;;;;;;;5.47;2.33;;;;;;;-145.69;97.01;72098.91;5115322;28;20208;-77
2022/02/04 13:10:20;;;;;;;3.40;2.17;;;;;;;-145.69;99.57;72094.94;5033259;28;20276;-77
2022/02/04 13:12:55;;;;;;;3.73;2.20;;;;;;;-145.69;98.24;72090.94;5099739;28;20221;-76
2022/02/04 13:15:23;;;;;;;5.73;2.87;;;;;;;-145.69;96.44;72084.97;5116256;28;20197;-77
2022/02/04 13:17:57;;;;;;;3.50;2.07;;;;;;;-145.69;97.15;72067.06;5116161;28;20201;-77
2022/02/04 13:20:24;;;;;;;4.10;1.50;;;;;;;-145.69;93.94;72075.03;5116106;28;20194;-76
2022/02/04 13:22:54;;;;;;;4.40;1.80;;;;;;;-145.69;95.73;72088.97;5115747;28;20205;-77
2022/02/04 13:25:22;;;;;;;2.53;1.30;;;;;;;-145.69;93.71;72071.03;5114359;28;20292;-76
2022/02/04 13:28:00;;;;;;;3.17;1.60;;;;;;;-145.69;94.11;72081.00;5095568;28;20209;-76
2022/02/04 13:30:29;;;;;;;2.77;1.40;;;;;;;-145.69;93.63;72065.06;5095766;28;20212;-77
2022/02/04 13:32:57;;;;;;;6.40;1.20;;;;;;;-145.69;93.26;72059.09;5096493;28;20249;-76
2022/02/04 13:35:35;;;;;;;1.43;1.10;;;;;;;-145.69;93.13;72047.16;5095230;28;20209;-76
2022/02/04 13:38:06;;;;;;;1.60;1.10;;;;;;;-145.69;92.55;72053.13;5095522;28;20274;-76
2022/02/04 13:40:51;;;;;;;4.27;2.20;;;;;;;-145.69;92.10;72067.06;5095621;28;20205;-77
2022/02/04 13:43:27;;;;;;;3.67;1.97;;;;;;;-145.69;91.90;72071.03;5095495;28;20270;-76
2022/02/04 13:46:00;;;;;;;3.63;2.03;;;;;;;-145.69;91.65;72049.16;5095058;28;20311;-77
2022/02/04 13:48:42;;;;;;;1.70;1.10;;;;;;;-145.69;91.36;72043.19;5095370;28;20293;-76
2022/02/04 13:51:22;;;;;;;2.10;0.90;;;;;;;-145.69;92.71;72049.16;5094618;28;20226;-76
2022/02/04 13:54:09;;;;;;;3.87;1.00;;;;;;;-145.69;92.02;72051.16;5094832;28;20726;-76
2022/02/04 13:56:45;;;;;;;1.10;0.80;;;;;;;-145.69;91.63;72041.19;5106058;28;20200;-76
2022/02/04 13:59:19;;;;;;;1.47;1.10;;;;;;;-145.69;92.69;72047.16;5115441;28;20248;-76
2022/02/04 14:01:55;;;;;;;4.10;1.17;;;;;;;-145.69;92.47;72039.19;5115111;28;20205;-76
2022/02/04 14:04:23;;;;;;;1.03;0.83;;;;;;;-145.69;91.88;72073.03;5115217;28;20200;-76
2022/02/04 14:07:06;;;;;;;0.93;0.80;;;;;;;-145.69;91.73;72047.16;5115219;28;20197;-76
2022/02/04 14:09:37;;;;;;;1.37;1.00;;;;;;;-145.69;91.20;72059.09;5115077;28;20211;-77
2022/02/04 14:12:15;;;;;;;1.60;1.00;;;;;;;-145.69;90.59;72079.00;5114958;28;20198;-76
2022/02/04 14:14:41;;;;;;;4.17;0.93;;;;;;;-145.69;91.93;72102.88;5114966;28;20225;-77
2022/02/04 14:17:08;;;;;;;0.67;0.60;;;;;;;-145.69;89.71;72094.94;5108115;28;20224;-76
2022/02/04 14:19:36;;;;;;;0.60;0.60;;;;;;;-145.69;90.42;72114.81;5108358;28;20655;-76
2022/02/04 14:22:05;;;;;;;1.33;0.70;;;;;;;-145.69;89.92;72110.84;5114264;28;20197;-76
2022/02/04 14:24:33;;;;;;;0.50;0.50;;;;;;;-145.69;89.26;72124.78;5094410;28;20259;-76
2022/02/04 14:27:00;;;;;;;1.20;0.90;;;;;;;-145.69;90.22;72124.78;5094205;28;20194;-76
2022/02/04 14:29:32;;;;;;;1.40;1.20;;;;;;;-145.69;89.12;72116.81;5094163;28;20209;-76
2022/02/04 14:32:06;;;;;;;1.57;1.30;;;;;;;-145.69;86.75;72120.81;5094432;28;20209;-76
2022/02/04 14:34:57;;;;;;;0.93;0.67;;;;;;;-145.69;85.85;72102.88;5097614;28;20220;-77
2022/02/04 14:37:44;;;;;;;2.10;0.60;;;;;;;-145.69;79.08;71981.50;5114794;28;20215;-75
2022/02/04 14:51:44;;;;;;;0.70;0.70;;;;;;;-145.69;87.97;72150.66;5114215;28;20289;-76
2022/02/04 14:54:25;;;;;;;1.23;0.97;;;;;;;-145.69;88.60;72142.69;5110704;28;20576;-76
2022/02/04 15:02:43;;;;;;;0.80;0.60;;;;;;;-145.69;88.29;72182.50;5114128;28;20193;-76
2022/02/04 15:05:13;;;;;;;0.97;0.70;;;;;;;-145.69;89.14;72180.50;5114188;28;20213;-77
2022/02/04 15:07:43;;;;;;;0.70;0.70;;;;;;;-145.69;90.63;72168.56;5114290;28;20201;-77
2022/02/04 15:10:14;;;;;;;1.00;0.70;;;;;;;-145.69;90.62;72174.53;5113253;28;20659;-77
2022/02/04 15:12:42;;;;;;;0.67;0.67;;;;;;;-145.69;88.55;72174.53;5097019;28;20205;-77
2022/02/04 15:15:09;;;;;;;0.53;0.53;;;;;;;-145.69;89.19;72182.50;5093062;28;20339;-78
2022/02/04 15:17:37;;;;;;;0.57;0.47;;;;;;;-145.69;88.80;72182.50;5093520;28;20197;-78
2022/02/04 15:20:05;;;;;;;1.17;0.80;;;;;;;-145.69;90.38;72196.44;5092794;28;20206;-79
2022/02/04 15:22:32;;;;;;;1.77;1.20;;;;;;;-145.69;91.01;72188.47;5092581;28;20220;-78
2022/02/04 15:25:09;;;;;;;2.43;1.60;;;;;;;-145.69;90.35;72196.44;5093403;28;20213;-79
2022/02/04 15:27:39;;;;;;;3.20;1.70;;;;;;;-145.69;89.79;72192.44;5093523;28;20216;-76
2022/02/04 15:30:08;;;;;;;2.20;1.47;;;;;;;-145.69;91.54;72194.44;5093080;28;20202;-76
2022/02/04 15:32:35;;;;;;;3.30;1.40;;;;;;;-145.69;90.72;72202.41;5093096;28;20199;-78
2022/02/04 15:35:05;;;;;;;0.50;0.50;;;;;;;-145.69;89.91;72212.34;5092934;28;20692;-77
2022/02/04 15:37:31;;;;;;;2.30;0.70;;;;;;;-145.69;92.07;72218.31;5093430;28;20193;-79
2022/02/04 15:39:58;;;;;;;1.00;0.87;;;;;;;-145.69;93.14;72212.34;5093225;28;20198;-80
2022/02/04 15:42:27;;;;;;;1.10;1.00;;;;;;;-145.69;90.56;72220.31;5092861;28;20692;-77